Hoegh Oslo — LAEK7 — position and weather

sailwx.info

Track history (hours):
 
Tides and Currents Weather Stations Pressure Air Temp Water Temp Dewpoint Dewpoint Depression Visibility Wind Speed Wind Dir Waves Ship Positions

Hoegh Oslo

Last reported at 2019-Jul-07 22:09 UTC. Time now 2019-Jul-17 16:43 UTC.
Position S 14°23' E 041°04'.
Warning: this ship's position is 9 days out of date.

Length 180 m; draft 7.9 m.

Type: Cargo ship. MMSI: 259739000.

Date/timePositionNaut miles runAvg speedWind from/ knotsBaromVisibWave heightAir tempDewpointWater temp
2019-Jul-07 22:09S 14°23' E 041°04'211.5
2019-Jul-07 22:00S 14°24' E 041°04'611.9
2019-Jul-07 21:30S 14°30' E 041°04'1112.2
2019-Jul-07 20:37S 14°41' E 041°05'  
2019-Jul-04 15:31S 29°27' E 031°41'614.4
2019-Jul-04 15:06S 29°31' E 031°35'1114.4
2019-Jul-04 14:20S 29°38' E 031°25'514.6
2019-Jul-04 14:00S 29°40' E 031°21'714.8
2019-Jul-04 13:30S 29°45' E 031°14'714.5
2019-Jul-04 13:00S 29°49' E 031°07'510.6
2019-Jul-04 12:30S 29°53' E 031°02'1 0.4
2019-Jul-04 10:06S 29°52' E 031°02'0 0.0
2019-Jul-04 09:24S 29°52' E 031°02'0 0.0
2019-Jul-03 15:09S 29°52' E 031°02'0 0.0
2019-Jul-03 01:23S 29°52' E 031°02'1 3.0
2019-Jul-03 00:59S 29°53' E 031°03'4 8.2
2019-Jul-03 00:30S 29°49' E 031°06'2 3.3
2019-Jul-03 00:00S 29°49' E 031°08'1 1.6
2019-Jul-02 23:30S 29°48' E 031°08'3 5.6
2019-Jul-02 23:00S 29°47' E 031°11'612.3
2019-Jul-02 22:30S 29°43' E 031°17'815.2
2019-Jul-02 21:59S 29°39' E 031°24'  
2019-Jun-29 00:03S 14°46' E 041°05'115.4
2019-Jun-29 00:00S 14°45' E 041°05'1415.6
2019-Jun-28 23:05S 14°31' E 041°05'216.0
2019-Jun-28 22:57S 14°28' E 041°05'716.0
2019-Jun-28 22:30S 14°21' E 041°05'1116.1
2019-Jun-28 21:51S 14°11' E 041°05'916.0
2019-Jun-28 21:19S 14°02' E 041°06'1515.7
2019-Jun-28 20:22S 13°47' E 041°05'615.7
2019-Jun-28 20:00S 13°42' E 041°05'  
Track history (hours):
 
Tides and Currents Weather Stations Pressure Air Temp Water Temp Dewpoint Dewpoint Depression Visibility Wind Speed Wind Dir Waves Ship Positions

Hoegh Oslo

Last reported at 2019-Jul-07 22:09 UTC. Time now 2019-Jul-17 16:43 UTC.
Position S 14°23' E 041°04'.
Warning: this ship's position is 9 days out of date.

Length 180 m; draft 7.9 m.

Type: Cargo ship. MMSI: 259739000.

Date/timePositionNaut miles runAvg speedWind from/ knotsBaromVisibWave heightAir tempDewpointWater temp
2019-Jul-07 22:09S 14°23' E 041°04'211.5
2019-Jul-07 22:00S 14°24' E 041°04'611.9
2019-Jul-07 21:30S 14°30' E 041°04'1112.2
2019-Jul-07 20:37S 14°41' E 041°05'  
2019-Jul-04 15:31S 29°27' E 031°41'614.4
2019-Jul-04 15:06S 29°31' E 031°35'1114.4
2019-Jul-04 14:20S 29°38' E 031°25'514.6
2019-Jul-04 14:00S 29°40' E 031°21'714.8
2019-Jul-04 13:30S 29°45' E 031°14'714.5
2019-Jul-04 13:00S 29°49' E 031°07'510.6
2019-Jul-04 12:30S 29°53' E 031°02'1 0.4
2019-Jul-04 10:06S 29°52' E 031°02'0 0.0
2019-Jul-04 09:24S 29°52' E 031°02'0 0.0
2019-Jul-03 15:09S 29°52' E 031°02'0 0.0
2019-Jul-03 01:23S 29°52' E 031°02'1 3.0
2019-Jul-03 00:59S 29°53' E 031°03'4 8.2
2019-Jul-03 00:30S 29°49' E 031°06'2 3.3
2019-Jul-03 00:00S 29°49' E 031°08'1 1.6
2019-Jul-02 23:30S 29°48' E 031°08'3 5.6
2019-Jul-02 23:00S 29°47' E 031°11'612.3
2019-Jul-02 22:30S 29°43' E 031°17'815.2
2019-Jul-02 21:59S 29°39' E 031°24'  
2019-Jun-29 00:03S 14°46' E 041°05'115.4
2019-Jun-29 00:00S 14°45' E 041°05'1415.6
2019-Jun-28 23:05S 14°31' E 041°05'216.0
2019-Jun-28 22:57S 14°28' E 041°05'716.0
2019-Jun-28 22:30S 14°21' E 041°05'1116.1
2019-Jun-28 21:51S 14°11' E 041°05'916.0
2019-Jun-28 21:19S 14°02' E 041°06'1515.7
2019-Jun-28 20:22S 13°47' E 041°05'615.7
2019-Jun-28 20:00S 13°42' E 041°05'  

Dump ship's entire track history